Time;durP1;ratioP1;P1;durP2;ratioP2;P2;SDS_P1;SDS_P2;PMS_P1;PMS_P2;Temp;Humidity;BMP_temperature;BMP_pressure;BME280_temperature;BME280_humidity;BME280_pressure;Samples;Min_cycle;Max_cycle;Signal;HPM_P1;HPM_P2
2022/05/08 00:01:14;;;;;;;4.75;4.55;;;;;;;12.04;100.00;101998.25;6139677;23;20060;-74
2022/05/08 00:03:40;;;;;;;7.18;6.78;;;;;;;11.55;100.00;101927.25;6126861;23;20028;-75
2022/05/08 00:06:10;;;;;;;4.70;4.50;;;;;;;11.47;100.00;101914.38;6172520;23;20032;-74
2022/05/08 00:08:38;;;;;;;5.90;5.63;;;;;;;11.96;100.00;102007.25;6132488;23;20400;-73
2022/05/08 00:11:05;;;;;;;4.60;4.40;;;;;;;11.69;100.00;101961.78;6171991;23;20283;-73
2022/05/08 00:13:32;;;;;;;5.15;4.93;;;;;;;11.92;100.00;102000.41;6161321;23;20034;-73
2022/05/08 00:15:59;;;;;;;5.18;4.95;;;;;;;11.64;100.00;101960.22;6163575;23;20503;-74
2022/05/08 00:18:26;;;;;;;4.80;4.60;;;;;;;11.27;100.00;101916.88;6148215;23;20008;-74
2022/05/08 00:20:52;;;;;;;4.72;4.53;;;;;;;11.53;100.00;101947.47;6163118;23;20041;-74
2022/05/08 00:23:19;;;;;;;4.60;4.40;;;;;;;11.95;100.00;102018.72;6135589;23;20197;-74
2022/05/08 00:25:45;;;;;;;6.70;6.38;;;;;;;11.96;100.00;102014.31;6138734;23;20020;-74
2022/05/08 00:28:11;;;;;;;4.60;4.40;;;;;;;11.58;100.00;101948.16;6135206;23;20029;-75
2022/05/08 00:30:38;;;;;;;6.43;6.13;;;;;;;11.59;100.00;101949.88;6158166;23;20024;-73
2022/05/08 00:33:04;;;;;;;5.32;5.03;;;;;;;11.71;100.00;101957.31;6145494;23;20025;-74
2022/05/08 00:35:31;;;;;;;6.10;5.60;;;;;;;11.47;100.00;101914.38;6168142;23;20172;-75
2022/05/08 00:37:57;;;;;;;4.60;4.40;;;;;;;12.12;100.00;102010.19;6141948;23;20084;-74
2022/05/08 00:40:24;;;;;;;4.85;4.65;;;;;;;12.22;100.00;102013.34;6166682;23;20013;-74
2022/05/08 00:42:53;;;;;;;5.20;5.00;;;;;;;12.14;100.00;101983.81;6162057;23;20055;-75
2022/05/08 00:45:19;;;;;;;5.35;4.95;;;;;;;12.45;100.00;102009.84;6159443;23;20021;-75
2022/05/08 00:47:46;;;;;;;6.35;6.05;;;;;;;12.56;100.00;102004.97;6154205;23;20318;-75
2022/05/08 00:50:13;;;;;;;5.32;5.05;;;;;;;12.57;100.00;101998.81;6166484;23;20087;-74
2022/05/08 00:52:40;;;;;;;6.13;5.82;;;;;;;12.75;100.00;102004.28;6143996;23;20012;-74
2022/05/08 00:55:06;;;;;;;5.38;5.07;;;;;;;12.49;100.00;101950.00;6163803;23;20089;-74
2022/05/08 00:57:36;;;;;;;5.00;4.75;;;;;;;12.71;100.00;101974.56;6150103;23;20091;-74
2022/05/08 01:00:04;;;;;;;4.72;4.53;;;;;;;12.73;100.00;101977.97;6160635;23;20025;-75
2022/05/08 01:02:31;;;;;;;5.90;5.50;;;;;;;12.99;100.00;102002.41;6155474;23;20076;-75
2022/05/08 01:04:58;;;;;;;5.03;4.82;;;;;;;12.43;100.00;101908.09;6132384;23;20084;-75
2022/05/08 01:07:25;;;;;;;4.80;4.60;;;;;;;12.58;100.00;101924.13;6139271;23;20261;-74
2022/05/08 01:09:54;;;;;;;4.95;4.70;;;;;;;12.62;100.00;101924.03;6132660;23;20027;-75
2022/05/08 01:12:23;;;;;;;5.88;5.53;;;;;;;12.29;100.00;101874.47;6122689;23;20330;-75
2022/05/08 01:15:12;;;;;;;5.20;4.90;;;;;;;13.08;100.00;101999.38;6109984;23;20031;-74
2022/05/08 01:17:38;;;;;;;6.65;6.25;;;;;;;13.05;100.00;102004.78;6118769;23;20033;-74
2022/05/08 01:20:06;;;;;;;5.30;4.90;;;;;;;12.86;100.00;101967.78;6134256;23;20009;-75
2022/05/08 01:22:32;;;;;;;5.90;5.63;;;;;;;13.07;100.00;102004.69;6131491;23;20059;-75
2022/05/08 01:25:03;;;;;;;4.47;4.28;;;;;;;13.04;100.00;101995.16;6112135;23;20390;-75
2022/05/08 01:27:29;;;;;;;5.15;4.85;;;;;;;12.41;100.00;101902.94;6135868;23;20109;-74
2022/05/08 01:29:56;;;;;;;5.65;5.40;;;;;;;12.54;100.00;101929.59;6119288;23;20025;-74
2022/05/08 01:32:23;;;;;;;5.82;5.35;;;;;;;12.71;100.00;101964.03;6134754;23;20362;-74
2022/05/08 01:34:49;;;;;;;5.15;4.85;;;;;;;12.91;100.00;102000.09;6099184;23;20383;-73
2022/05/08 01:37:16;;;;;;;4.45;4.25;;;;;;;12.76;100.00;101980.47;6122400;23;20017;-74
2022/05/08 01:39:42;;;;;;;6.63;6.22;;;;;;;12.57;100.00;101959.31;6112832;23;20517;-75
2022/05/08 01:42:09;;;;;;;5.10;4.90;;;;;;;12.79;100.00;102003.22;6135145;23;20077;-74
2022/05/08 01:44:35;;;;;;;6.43;6.03;;;;;;;12.79;100.00;102000.59;6108818;23;20013;-75
2022/05/08 01:49:47;;;;;;;7.05;6.68;;;;;;;12.68;100.00;102008.06;6131094;23;21520;-75
2022/05/08 01:52:13;;;;;;;5.00;4.80;;;;;;;12.47;100.00;101981.66;6110679;23;20017;-74
2022/05/08 01:54:40;;;;;;;6.32;6.03;;;;;;;12.19;100.00;101952.94;6119560;23;20017;-74
2022/05/08 01:57:06;;;;;;;4.57;4.38;;;;;;;11.84;100.00;101906.88;6136152;23;20027;-74
2022/05/08 01:59:33;;;;;;;6.93;6.53;;;;;;;12.49;100.00;102005.31;6136691;23;20044;-75
2022/05/08 02:01:59;;;;;;;5.22;4.97;;;;;;;12.47;100.00;102015.00;6137685;23;20266;-74
2022/05/08 02:04:26;;;;;;;5.28;4.97;;;;;;;10.75;100.00;101727.84;6147629;23;20032;-74
2022/05/08 02:06:52;;;;;;;5.32;5.10;;;;;;;11.91;100.00;101932.09;6138468;23;20029;-74
2022/05/08 02:09:19;;;;;;;5.40;5.18;;;;;;;12.07;100.00;101975.31;6135015;23;20053;-73
2022/05/08 02:11:45;;;;;;;7.15;6.82;;;;;;;12.38;100.00;102024.13;6131759;23;20478;-75
2022/05/08 02:14:11;;;;;;;4.88;4.68;;;;;;;12.00;100.00;101960.66;6147088;23;20328;-75
2022/05/08 02:16:38;;;;;;;5.75;5.53;;;;;;;12.31;100.00;102020.03;6138655;23;20255;-73
2022/05/08 02:19:04;;;;;;;4.40;4.20;;;;;;;11.93;100.00;101975.81;6137548;23;20013;-75
2022/05/08 02:21:31;;;;;;;4.57;4.38;;;;;;;10.87;100.00;101842.09;6142293;23;20130;-74
2022/05/08 02:23:57;;;;;;;4.43;4.22;;;;;;;11.58;100.00;101956.88;6137659;23;20020;-75
2022/05/08 02:26:23;;;;;;;4.75;4.45;;;;;;;11.82;100.00;102001.63;6133033;23;20019;-75
2022/05/08 02:28:50;;;;;;;5.18;4.53;;;;;;;11.63;100.00;101984.81;6153967;23;20087;-75
2022/05/08 02:31:16;;;;;;;4.55;4.30;;;;;;;11.89;100.00;102026.00;6104837;23;20017;-74
2022/05/08 02:33:43;;;;;;;5.25;5.05;;;;;;;11.47;100.00;101977.47;6135312;23;20584;-73
2022/05/08 02:36:09;;;;;;;4.60;4.40;;;;;;;10.87;100.00;101877.09;6121162;23;20049;-75
2022/05/08 02:38:38;;;;;;;4.90;4.70;;;;;;;11.09;100.00;101923.63;6150366;23;20035;-73
2022/05/08 02:41:04;;;;;;;4.53;4.18;;;;;;;11.58;100.00;102020.00;6112196;23;20428;-75
2022/05/08 02:43:31;;;;;;;4.70;4.40;;;;;;;11.69;100.00;102038.03;6145387;23;20025;-75
2022/05/08 02:45:59;;;;;;;4.47;4.28;;;;;;;11.66;100.00;102034.66;6118471;23;20575;-75
2022/05/08 02:48:26;;;;;;;4.50;4.25;;;;;;;11.28;100.00;101974.59;6154631;23;20021;-75
2022/05/08 02:50:53;;;;;;;5.03;4.82;;;;;;;11.62;100.00;102028.63;6123759;23;20257;-75
2022/05/08 02:53:20;;;;;;;4.55;4.35;;;;;;;10.97;100.00;101943.28;6143224;23;20033;-74
2022/05/08 02:58:32;;;;;;;6.82;6.53;;;;;;;11.51;100.00;102049.22;6099990;23;21175;-73
2022/05/08 03:01:04;;;;;;;4.85;4.65;;;;;;;11.12;100.00;101982.16;6113316;23;20524;-75
2022/05/08 03:03:31;;;;;;;4.82;4.63;;;;;;;11.44;100.00;102029.28;6148574;23;20087;-73
2022/05/08 03:05:57;;;;;;;4.65;4.45;;;;;;;11.42;100.00;102045.09;6119736;23;20068;-75
2022/05/08 03:08:24;;;;;;;5.00;4.60;;;;;;;11.39;100.00;102034.72;6122967;23;20048;-75
2022/05/08 03:13:37;;;;;;;5.18;4.97;;;;;;;10.72;100.00;101936.25;6113252;23;20088;-73
2022/05/08 03:16:04;;;;;;;4.78;4.47;;;;;;;11.04;100.00;102020.13;6146671;23;20095;-75
2022/05/08 03:18:31;;;;;;;4.40;4.20;;;;;;;11.20;100.00;102038.84;6139336;23;20542;-74
2022/05/08 03:20:58;;;;;;;4.60;4.40;;;;;;;10.79;100.00;101986.78;6111578;23;20207;-74
2022/05/08 03:23:24;;;;;;;4.40;4.20;;;;;;;11.05;100.00;102042.88;6149004;23;20136;-74
2022/05/08 03:25:51;;;;;;;4.78;4.57;;;;;;;10.34;100.00;101929.56;6123747;23;20025;-75
2022/05/08 03:28:17;;;;;;;4.40;4.20;;;;;;;10.01;100.00;101876.38;6144012;23;20021;-74
2022/05/08 03:30:44;;;;;;;5.93;5.63;;;;;;;10.93;100.00;102050.22;6111687;23;20045;-74
2022/05/08 03:33:11;;;;;;;4.30;4.10;;;;;;;10.92;100.00;102042.38;6150777;23;20409;-74
2022/05/08 03:35:39;;;;;;;5.80;5.50;;;;;;;10.91;100.00;102045.94;6094029;23;20014;-73
2022/05/08 03:38:06;;;;;;;4.18;3.97;;;;;;;10.70;100.00;102024.66;6161574;23;20024;-73
2022/05/08 03:40:34;;;;;;;5.20;5.00;;;;;;;10.85;100.00;102046.97;6118101;23;20017;-73
2022/05/08 03:43:00;;;;;;;4.60;4.40;;;;;;;10.85;100.00;102048.75;6139956;23;20029;-74
2022/05/08 03:45:28;;;;;;;4.00;3.80;;;;;;;8.69;100.00;101709.06;6140530;23;20024;-75
2022/05/08 03:47:56;;;;;;;4.70;4.50;;;;;;;10.62;100.00;102020.59;6144758;23;20013;-75
2022/05/08 03:50:22;;;;;;;4.10;3.90;;;;;;;10.25;100.00;101972.69;6134702;23;20041;-75
2022/05/08 03:52:49;;;;;;;5.10;4.80;;;;;;;10.33;100.00;101981.22;6146686;23;20244;-73
2022/05/08 03:55:15;;;;;;;4.20;3.95;;;;;;;10.75;100.00;102059.53;6134770;23;20646;-75
2022/05/08 03:57:42;;;;;;;5.65;5.45;;;;;;;10.57;100.00;102016.34;6132502;23;20092;-74
2022/05/08 04:00:12;;;;;;;4.82;4.63;;;;;;;10.67;100.00;102037.91;6098011;23;20033;-73
2022/05/08 04:02:39;;;;;;;5.03;4.82;;;;;;;10.12;100.00;101945.09;6145761;23;20009;-74
2022/05/08 04:05:06;;;;;;;4.13;3.92;;;;;;;10.40;100.00;101996.75;6120766;23;20088;-75
2022/05/08 04:07:33;;;;;;;5.63;4.82;;;;;;;10.73;100.00;102061.34;6128713;23;20021;-73
2022/05/08 04:09:59;;;;;;;4.30;4.10;;;;;;;10.69;100.00;102049.22;6113523;23;20018;-75
2022/05/08 04:12:27;;;;;;;4.53;4.32;;;;;;;10.77;100.00;102081.34;6140438;23;20021;-75
2022/05/08 04:14:53;;;;;;;4.80;4.50;;;;;;;10.76;100.00;102087.53;6116946;23;20068;-75
2022/05/08 04:17:20;;;;;;;4.18;3.97;;;;;;;10.30;100.00;101991.81;6144983;23;20012;-73
2022/05/08 04:19:46;;;;;;;5.32;5.13;;;;;;;10.67;100.00;102056.28;6121335;23;20027;-75
2022/05/08 04:24:58;;;;;;;4.63;4.35;;;;;;;10.76;100.00;102071.78;6098691;23;20517;-74
2022/05/08 04:27:25;;;;;;;4.60;4.20;;;;;;;10.33;100.00;102002.19;6136920;23;20493;-74
2022/05/08 04:29:51;;;;;;;5.07;4.82;;;;;;;10.72;100.00;102078.03;6134708;23;20275;-76
2022/05/08 04:32:17;;;;;;;4.28;4.07;;;;;;;10.45;100.00;102032.47;6111216;23;20017;-74
2022/05/08 04:34:44;;;;;;;6.60;6.25;;;;;;;10.55;100.00;102060.16;6121114;23;20071;-75
2022/05/08 04:37:10;;;;;;;4.60;4.40;;;;;;;10.47;100.00;102035.06;6101051;23;20022;-74
2022/05/08 04:39:37;;;;;;;5.43;5.22;;;;;;;9.98;100.00;101974.34;6143453;23;20087;-73
2022/05/08 04:42:03;;;;;;;4.43;4.22;;;;;;;10.47;100.00;102056.03;6104508;23;20040;-75
2022/05/08 04:44:29;;;;;;;4.43;4.22;;;;;;;9.18;100.00;101832.47;6137638;23;20458;-74
2022/05/08 04:46:56;;;;;;;4.22;4.03;;;;;;;10.64;100.00;102090.50;6125677;23;20112;-73
2022/05/08 04:49:22;;;;;;;4.45;4.25;;;;;;;9.98;100.00;101990.97;6146838;23;20033;-75
2022/05/08 04:51:49;;;;;;;4.45;4.25;;;;;;;10.50;100.00;102084.81;6132511;23;20020;-73
2022/05/08 04:54:15;;;;;;;4.20;4.00;;;;;;;10.63;100.00;102099.31;6134409;23;20020;-75
2022/05/08 04:56:42;;;;;;;6.35;6.05;;;;;;;10.57;100.00;102099.47;6110471;23;20021;-75
2022/05/08 04:59:08;;;;;;;4.60;4.40;;;;;;;10.35;100.00;102066.00;6139546;23;20030;-75
2022/05/08 05:01:35;;;;;;;5.53;5.32;;;;;;;10.29;100.00;102055.63;6103869;23;20012;-75
2022/05/08 05:04:01;;;;;;;4.25;4.05;;;;;;;10.56;100.00;102103.88;6165276;23;20167;-73
2022/05/08 05:06:28;;;;;;;4.35;4.13;;;;;;;10.48;100.00;102105.00;6165973;23;20346;-74
2022/05/08 05:08:54;;;;;;;4.50;4.30;;;;;;;10.50;100.00;102108.44;6139343;23;20035;-75
2022/05/08 05:11:21;;;;;;;4.35;4.13;;;;;;;10.54;100.00;102108.31;6144796;23;20496;-75
2022/05/08 05:13:47;;;;;;;5.75;5.50;;;;;;;10.21;100.00;102055.00;6159395;23;20028;-75
2022/05/08 05:16:13;;;;;;;4.28;4.07;;;;;;;10.49;100.00;102104.09;6161436;23;20355;-75
2022/05/08 05:18:40;;;;;;;6.07;5.78;;;;;;;10.16;100.00;102070.00;6167775;23;20026;-74
2022/05/08 05:21:06;;;;;;;4.28;4.07;;;;;;;10.10;100.00;102054.44;6160454;23;20103;-75
2022/05/08 05:23:35;;;;;;;5.72;5.40;;;;;;;10.24;100.00;102083.75;6156358;23;20465;-74
2022/05/08 05:26:03;;;;;;;4.60;4.40;;;;;;;9.89;100.00;102030.53;6163744;23;20031;-73
2022/05/08 05:28:30;;;;;;;5.13;4.10;;;;;;;10.52;100.00;102120.63;6153183;23;20419;-74
2022/05/08 05:30:57;;;;;;;4.13;3.92;;;;;;;10.42;100.00;102110.41;6160896;23;20047;-75
2022/05/08 05:33:23;;;;;;;4.68;4.47;;;;;;;10.54;100.00;102118.81;6133921;23;20019;-73
2022/05/08 05:35:50;;;;;;;4.10;3.90;;;;;;;10.24;100.00;102073.25;6165880;23;20022;-74
2022/05/08 05:38:16;;;;;;;4.40;4.20;;;;;;;9.53;99.50;101959.88;6127011;23;20015;-73
2022/05/08 05:40:43;;;;;;;4.68;4.47;;;;;;;10.41;99.16;102111.34;6150555;23;20369;-73
2022/05/08 05:43:09;;;;;;;4.50;4.30;;;;;;;10.64;98.50;102142.16;6166013;23;20020;-77
2022/05/08 05:45:35;;;;;;;5.20;5.00;;;;;;;10.24;97.79;102064.53;6158194;23;20028;-73
2022/05/08 05:48:02;;;;;;;4.53;4.32;;;;;;;10.34;95.31;102108.00;6138652;23;20469;-73
2022/05/08 05:50:29;;;;;;;4.70;4.50;;;;;;;10.55;95.74;102138.03;6164558;23;20308;-74
2022/05/08 05:52:55;;;;;;;4.50;4.20;;;;;;;10.64;96.04;102153.50;6124720;23;20032;-73
2022/05/08 05:55:22;;;;;;;4.82;4.63;;;;;;;10.62;96.88;102142.19;6155336;23;20226;-73
2022/05/08 05:57:48;;;;;;;5.68;5.43;;;;;;;10.23;93.45;102078.59;6162651;23;20017;-73
2022/05/08 06:00:17;;;;;;;4.15;3.95;;;;;;;9.34;92.48;101945.56;6131386;23;20009;-75
2022/05/08 06:02:45;;;;;;;5.82;5.55;;;;;;;10.12;92.23;102069.25;6151858;23;20306;-72
2022/05/08 06:05:13;;;;;;;4.20;4.00;;;;;;;10.46;92.46;102106.81;6104108;23;20104;-72
2022/05/08 06:07:40;;;;;;;6.18;5.88;;;;;;;10.91;90.75;102157.09;6120472;23;20044;-75
2022/05/08 06:10:08;;;;;;;4.70;4.50;;;;;;;10.75;89.17;102127.81;6138659;23;20430;-73
2022/05/08 06:12:35;;;;;;;5.47;5.25;;;;;;;10.92;89.54;102152.69;6111529;23;20284;-74
2022/05/08 06:15:03;;;;;;;4.40;4.20;;;;;;;10.76;89.00;102126.91;6138160;23;20503;-72
2022/05/08 06:17:29;;;;;;;4.30;4.10;;;;;;;9.62;87.91;101924.69;6102214;23;20013;-73
2022/05/08 06:19:56;;;;;;;4.60;4.40;;;;;;;11.15;86.92;102162.53;6135372;23;20051;-75
2022/05/08 06:22:23;;;;;;;4.53;4.32;;;;;;;10.96;87.95;102159.56;6138384;23;20013;-74
2022/05/08 06:24:49;;;;;;;5.20;5.00;;;;;;;11.28;88.68;102171.72;6102926;23;20672;-74
2022/05/08 06:27:16;;;;;;;4.60;4.30;;;;;;;11.26;86.13;102168.28;6133784;23;20025;-72
2022/05/08 06:29:43;;;;;;;5.50;5.30;;;;;;;10.99;85.35;102109.59;6132293;23;20228;-73
2022/05/08 06:32:10;;;;;;;4.50;4.30;;;;;;;11.44;86.58;102177.34;6106745;23;20031;-74
2022/05/08 06:34:36;;;;;;;5.40;5.20;;;;;;;11.00;84.54;102132.31;6135119;23;20021;-73
2022/05/08 06:37:03;;;;;;;4.63;4.22;;;;;;;11.27;84.35;102153.41;6135913;23;20021;-74
2022/05/08 06:39:30;;;;;;;4.53;4.32;;;;;;;11.41;84.60;102160.84;6113393;23;20059;-73
2022/05/08 06:41:56;;;;;;;4.80;4.60;;;;;;;11.72;83.58;102171.19;6134232;23;20035;-74
2022/05/08 06:44:23;;;;;;;4.40;4.20;;;;;;;12.07;81.57;102190.22;6121983;23;20022;-72
2022/05/08 06:46:49;;;;;;;4.70;4.50;;;;;;;11.45;80.73;102110.72;6133645;23;20365;-72
2022/05/08 06:49:15;;;;;;;4.63;4.43;;;;;;;12.30;79.41;102190.25;6124200;23;20013;-75
2022/05/08 06:51:44;;;;;;;6.00;5.70;;;;;;;12.58;79.72;102195.41;6131036;23;20544;-73
2022/05/08 06:54:10;;;;;;;4.45;4.25;;;;;;;12.47;77.55;102168.63;6143388;23;20394;-74
2022/05/08 06:56:43;;;;;;;5.32;5.13;;;;;;;12.40;76.69;102209.22;6100713;23;20036;-73
2022/05/08 07:01:54;;;;;;;5.38;4.97;;;;;;;10.87;79.77;102008.41;6135669;23;20235;-73
2022/05/08 07:04:21;;;;;;;4.70;4.50;;;;;;;11.81;79.16;102172.66;6132541;23;20368;-74
2022/05/08 07:06:47;;;;;;;5.95;5.68;;;;;;;11.65;80.18;102144.25;6137963;23;20029;-73
2022/05/08 07:09:14;;;;;;;4.57;4.38;;;;;;;11.75;79.44;102200.88;6130481;23;20505;-75
2022/05/08 07:11:41;;;;;;;6.15;5.85;;;;;;;11.34;81.58;102154.91;6129845;23;20111;-73
2022/05/08 07:14:08;;;;;;;4.65;4.45;;;;;;;11.92;81.94;102220.53;6105476;23;20224;-72
2022/05/08 07:16:34;;;;;;;5.38;5.15;;;;;;;11.92;80.25;102218.75;6138332;23;20008;-74
2022/05/08 07:19:01;;;;;;;4.43;4.22;;;;;;;11.88;80.44;102161.88;6134546;23;20024;-73
2022/05/08 07:21:27;;;;;;;4.57;4.38;;;;;;;12.14;79.92;102175.94;6079137;23;20534;-74
2022/05/08 07:23:55;;;;;;;4.50;4.30;;;;;;;12.56;78.01;102206.91;6132775;23;20046;-74
2022/05/08 07:26:22;;;;;;;4.53;4.32;;;;;;;12.60;77.06;102212.94;6125719;23;20025;-73
2022/05/08 07:28:48;;;;;;;5.57;5.38;;;;;;;12.57;77.10;102198.09;6133555;23;20033;-74
2022/05/08 07:31:15;;;;;;;4.25;4.05;;;;;;;13.00;76.20;102232.53;6132447;23;20169;-75
2022/05/08 07:33:42;;;;;;;6.03;5.72;;;;;;;12.83;78.00;102222.59;6129967;23;20028;-73
2022/05/08 07:36:14;;;;;;;4.40;4.20;;;;;;;12.27;77.96;102207.97;6135349;23;20310;-74
2022/05/08 07:38:46;;;;;;;6.03;5.72;;;;;;;11.76;78.13;102147.34;6129985;23;20086;-73
2022/05/08 07:41:17;;;;;;;4.22;4.03;;;;;;;11.61;79.89;102158.41;6140351;23;20219;-72
2022/05/08 07:43:47;;;;;;;5.50;5.30;;;;;;;12.29;79.31;102221.94;6133052;23;20299;-74
2022/05/08 07:46:14;;;;;;;4.78;4.55;;;;;;;11.96;79.73;102227.41;6129866;23;20033;-74
2022/05/08 07:48:41;;;;;;;5.75;5.53;;;;;;;11.94;80.30;102223.97;6134715;23;20092;-73
2022/05/08 07:51:07;;;;;;;4.40;4.20;;;;;;;11.73;81.36;102231.63;6161926;23;20016;-74
2022/05/08 07:53:34;;;;;;;5.05;4.85;;;;;;;11.87;83.29;102236.44;6137868;23;20446;-75
2022/05/08 07:56:00;;;;;;;4.65;4.45;;;;;;;11.90;82.69;102230.25;6141124;23;20020;-76
2022/05/08 07:58:28;;;;;;;5.32;5.03;;;;;;;12.00;81.79;102233.44;6144076;23;20024;-73
2022/05/08 08:01:00;;;;;;;4.45;4.25;;;;;;;11.81;82.52;102162.13;6097845;23;20009;-73
2022/05/08 08:03:30;;;;;;;4.20;4.00;;;;;;;12.12;80.37;102209.34;6152293;23;20024;-74
2022/05/08 08:05:57;;;;;;;4.38;4.18;;;;;;;12.04;79.82;102245.59;6141534;23;20031;-74
2022/05/08 08:08:40;;;;;;;6.03;5.72;;;;;;;10.83;80.53;102051.44;6105792;23;20025;-72
2022/05/08 08:11:07;;;;;;;4.35;4.15;;;;;;;12.19;78.78;102205.59;6144059;23;20036;-74
2022/05/08 08:13:35;;;;;;;5.75;5.45;;;;;;;12.35;77.00;102259.44;6136843;23;20025;-74
2022/05/08 08:16:02;;;;;;;4.40;4.20;;;;;;;12.18;78.59;102188.06;6104511;23;20017;-73
2022/05/08 08:18:30;;;;;;;4.40;4.20;;;;;;;12.56;77.44;102257.78;6143125;23;20485;-73
2022/05/08 08:20:56;;;;;;;4.80;4.60;;;;;;;11.87;77.84;102173.31;6136163;23;20021;-74
2022/05/08 08:23:24;;;;;;;4.40;4.20;;;;;;;12.61;78.55;102257.66;6143001;23;20017;-73
2022/05/08 08:25:51;;;;;;;4.78;4.57;;;;;;;12.45;77.61;102251.19;6081312;23;20025;-74
2022/05/08 08:28:18;;;;;;;4.50;4.30;;;;;;;12.17;77.25;102252.16;6130660;23;20026;-75
2022/05/08 08:30:44;;;;;;;4.72;4.53;;;;;;;12.41;78.49;102266.25;6112067;23;20035;-72
2022/05/08 08:33:11;;;;;;;4.70;4.50;;;;;;;12.17;77.22;102202.16;6138758;23;20418;-74
2022/05/08 08:35:39;;;;;;;6.15;5.85;;;;;;;12.29;76.92;102199.09;6110969;23;20291;-73
2022/05/08 08:38:08;;;;;;;4.75;4.55;;;;;;;12.70;78.11;102259.09;6136219;23;20731;-73
2022/05/08 08:40:39;;;;;;;5.35;5.15;;;;;;;12.94;75.47;102260.81;6129777;23;20013;-74
2022/05/08 08:43:07;;;;;;;4.60;4.40;;;;;;;13.14;73.69;102267.13;6142777;23;20035;-73
2022/05/08 08:48:32;;;;;;;4.43;4.22;;;;;;;12.89;72.74;102262.78;6135161;23;20516;-74
2022/05/08 08:51:01;;;;;;;4.80;4.60;;;;;;;11.97;72.48;102077.41;6138947;23;20707;-74
2022/05/08 08:53:28;;;;;;;4.43;4.22;;;;;;;12.65;71.69;102201.31;6116178;23;20086;-73
2022/05/08 08:55:56;;;;;;;4.60;4.40;;;;;;;13.17;70.71;102219.56;6131963;23;20076;-73
2022/05/08 08:58:23;;;;;;;5.00;4.80;;;;;;;13.34;70.26;102242.66;6138689;23;20474;-74
2022/05/08 09:00:52;;;;;;;4.78;4.57;;;;;;;13.10;70.01;102162.72;6117114;23;20170;-76
2022/05/08 09:03:20;;;;;;;4.80;4.60;;;;;;;13.41;69.05;102280.19;6148669;23;20008;-73
2022/05/08 09:05:46;;;;;;;6.05;5.75;;;;;;;13.16;66.89;102194.97;6146959;23;20096;-75
2022/05/08 09:08:28;;;;;;;4.70;4.50;;;;;;;13.42;66.51;102231.81;6111091;23;20077;-73
2022/05/08 09:10:58;;;;;;;4.63;4.43;;;;;;;13.66;66.88;102265.13;6144474;23;20017;-74
2022/05/08 09:13:29;;;;;;;4.80;4.60;;;;;;;14.08;68.24;102281.91;6104565;23;20017;-72
2022/05/08 09:16:07;;;;;;;4.93;4.72;;;;;;;14.22;64.64;102276.91;6139638;23;20345;-73
2022/05/08 09:18:44;;;;;;;5.47;5.22;;;;;;;14.38;66.54;102257.78;6143833;23;20355;-75
2022/05/08 09:24:11;;;;;;;5.00;4.80;;;;;;;14.49;64.13;102271.38;6127384;23;20364;-73
2022/05/08 09:26:37;;;;;;;6.10;5.80;;;;;;;14.00;62.12;102186.34;6140904;23;20194;-73
2022/05/08 09:29:05;;;;;;;4.80;4.60;;;;;;;14.63;61.74;102269.00;6112780;23;20060;-73
2022/05/08 09:31:43;;;;;;;4.95;4.75;;;;;;;14.19;62.00;102263.81;6140989;23;20013;-73
2022/05/08 09:34:14;;;;;;;4.70;4.50;;;;;;;14.18;61.14;102222.53;6124330;23;20010;-75
2022/05/08 09:36:41;;;;;;;5.97;5.68;;;;;;;14.26;65.71;102180.78;6138936;23;20616;-73
2022/05/08 09:39:07;;;;;;;4.60;4.40;;;;;;;14.85;64.49;102231.06;6133174;23;20076;-73
2022/05/08 09:41:37;;;;;;;5.35;5.15;;;;;;;15.05;59.80;102270.66;6132602;23;20024;-73
2022/05/08 09:44:11;;;;;;;4.70;4.50;;;;;;;15.15;61.03;102268.44;6140188;23;20697;-74
2022/05/08 09:46:39;;;;;;;5.80;5.55;;;;;;;14.60;57.85;102263.88;6150207;23;20114;-73
2022/05/08 09:49:07;;;;;;;4.93;4.72;;;;;;;14.68;59.75;102219.47;6129791;23;20100;-72
2022/05/08 09:51:34;;;;;;;6.07;5.78;;;;;;;14.83;61.15;102199.41;6143975;23;20049;-73
2022/05/08 09:54:01;;;;;;;5.00;4.80;;;;;;;15.52;57.52;102264.06;6122099;23;20029;-73
2022/05/08 09:56:28;;;;;;;4.70;4.50;;;;;;;14.85;57.47;102254.84;6114567;23;20407;-74
2022/05/08 09:58:55;;;;;;;5.00;4.80;;;;;;;15.07;59.62;102255.56;6141090;23;20084;-74
2022/05/08 10:01:24;;;;;;;5.10;4.90;;;;;;;14.68;59.08;102185.13;6125058;23;20161;-73
2022/05/08 10:03:51;;;;;;;5.05;4.85;;;;;;;14.51;60.17;102074.03;6128738;23;20533;-75
2022/05/08 10:06:19;;;;;;;4.93;4.72;;;;;;;15.27;55.93;102187.66;6117303;23;20504;-74
2022/05/08 10:08:47;;;;;;;6.63;6.32;;;;;;;14.95;59.81;102164.50;6073975;23;20037;-75
2022/05/08 10:14:04;;;;;;;4.88;4.68;;;;;;;15.70;57.12;102251.75;6139248;23;20032;-73
2022/05/08 10:16:50;;;;;;;5.30;5.05;;;;;;;15.94;57.11;102258.50;6114116;23;20017;-72
2022/05/08 10:19:20;;;;;;;5.40;5.20;;;;;;;15.52;56.78;102262.28;6137543;23;20037;-74
2022/05/08 10:21:55;;;;;;;5.90;5.60;;;;;;;15.69;59.17;102247.38;6077218;23;20009;-73
2022/05/08 10:24:33;;;;;;;4.78;4.57;;;;;;;15.53;56.63;102207.56;6124086;23;20206;-73
2022/05/08 10:27:14;;;;;;;4.85;4.63;;;;;;;15.99;60.25;102252.97;6135751;23;20350;-74
2022/05/08 10:29:50;;;;;;;5.95;5.65;;;;;;;16.12;55.04;102253.22;6134555;23;20517;-72
2022/05/08 10:32:32;;;;;;;5.03;4.82;;;;;;;16.29;55.82;102249.69;6133850;23;20015;-74
2022/05/08 10:35:13;;;;;;;4.80;4.60;;;;;;;16.13;55.78;102207.25;6139830;23;20034;-73
2022/05/08 10:37:44;;;;;;;5.68;5.47;;;;;;;16.77;53.06;102244.56;6109480;23;20180;-72
2022/05/08 10:40:22;;;;;;;4.90;4.70;;;;;;;16.65;51.70;102246.06;6132665;23;21682;-74
2022/05/08 10:42:49;;;;;;;5.75;5.53;;;;;;;16.36;52.66;102227.25;6125401;23;20413;-74
2022/05/08 10:45:36;;;;;;;4.95;4.75;;;;;;;15.49;51.62;102018.16;6136917;23;20013;-75
2022/05/08 10:48:17;;;;;;;5.00;4.80;;;;;;;16.32;53.10;102233.66;6111748;23;20021;-72
2022/05/08 10:50:47;;;;;;;5.85;5.57;;;;;;;16.65;55.81;102235.47;6120757;23;20021;-72
2022/05/08 10:53:26;;;;;;;4.88;4.68;;;;;;;16.68;53.39;102204.34;6126791;23;20112;-72
2022/05/08 10:56:09;;;;;;;5.20;5.00;;;;;;;17.00;48.30;102235.38;6125459;23;20017;-74
2022/05/08 10:58:41;;;;;;;6.88;6.57;;;;;;;17.21;48.14;102236.00;6103677;23;20324;-73
2022/05/08 11:01:11;;;;;;;5.10;4.90;;;;;;;16.57;47.48;102230.56;6131173;23;20109;-73
2022/05/08 11:03:38;;;;;;;6.78;6.35;;;;;;;16.84;45.44;102222.09;6133122;23;20438;-75
2022/05/08 11:06:06;;;;;;;5.00;4.80;;;;;;;16.90;46.06;102235.03;6125776;23;20037;-74
2022/05/08 11:08:34;;;;;;;5.55;5.30;;;;;;;17.23;47.04;102234.13;6124454;23;20044;-73
2022/05/08 11:11:09;;;;;;;5.10;4.90;;;;;;;17.20;47.61;102221.00;6103947;23;20029;-73
2022/05/08 11:13:37;;;;;;;5.38;5.18;;;;;;;16.45;44.47;102111.97;6134389;23;20021;-73
2022/05/08 11:16:04;;;;;;;4.80;4.60;;;;;;;16.88;44.66;102232.47;6111201;23;20395;-73
2022/05/08 11:18:30;;;;;;;4.82;4.63;;;;;;;16.35;46.33;102157.50;6140981;23;20189;-73
2022/05/08 11:21:02;;;;;;;4.80;4.60;;;;;;;17.06;43.77;102227.06;6136878;23;20716;-75
2022/05/08 11:23:33;;;;;;;4.85;4.65;;;;;;;16.59;44.73;102227.84;6144638;23;20009;-73
2022/05/08 11:26:09;;;;;;;4.68;4.47;;;;;;;16.54;43.94;102177.72;6138265;23;20481;-74
2022/05/08 11:28:46;;;;;;;5.95;5.65;;;;;;;17.03;44.21;102230.75;6136075;23;20193;-72
2022/05/08 11:31:15;;;;;;;4.50;4.30;;;;;;;16.89;43.13;102225.34;6114485;23;20323;-74
2022/05/08 11:36:32;;;;;;;4.97;4.70;;;;;;;17.14;44.09;102211.63;6114160;23;20084;-75
2022/05/08 11:39:02;;;;;;;4.70;4.50;;;;;;;17.09;44.47;102201.25;6122959;23;20235;-75
2022/05/08 11:41:32;;;;;;;4.80;4.60;;;;;;;17.50;44.65;102213.97;6140662;23;20092;-74
2022/05/08 11:44:02;;;;;;;5.00;4.80;;;;;;;17.88;45.34;102207.41;6110985;23;20508;-73
2022/05/08 11:46:38;;;;;;;4.93;4.72;;;;;;;17.68;44.92;102196.13;6132538;23;20063;-73
2022/05/08 11:49:21;;;;;;;4.95;4.75;;;;;;;17.50;44.16;102200.72;6124911;23;20025;-73
2022/05/08 11:51:49;;;;;;;;;;;;;;;17.45;44.00;102204.56;6126113;23;20016;-74